sensor_id;sensor_type;location;lat;lon;timestamp;P1;durP1;ratioP1;P2;durP2;ratioP2
6209;SDS011;3138;52.550;13.148;2023-02-18T00:02:10;21.23;;;4.53;;
6209;SDS011;3138;52.550;13.148;2023-02-18T00:04:36;29.43;;;5.10;;
6209;SDS011;3138;52.550;13.148;2023-02-18T00:07:03;17.43;;;4.40;;
6209;SDS011;3138;52.550;13.148;2023-02-18T00:09:30;39.13;;;4.67;;
6209;SDS011;3138;52.550;13.148;2023-02-18T00:11:58;30.30;;;4.93;;
6209;SDS011;3138;52.550;13.148;2023-02-18T00:14:25;20.93;;;3.43;;
6209;SDS011;3138;52.550;13.148;2023-02-18T00:16:52;41.27;;;4.80;;
6209;SDS011;3138;52.550;13.148;2023-02-18T00:19:19;30.70;;;4.87;;
6209;SDS011;3138;52.550;13.148;2023-02-18T00:21:46;44.57;;;4.80;;
6209;SDS011;3138;52.550;13.148;2023-02-18T00:24:13;24.67;;;4.70;;
6209;SDS011;3138;52.550;13.148;2023-02-18T00:26:41;26.83;;;5.07;;
6209;SDS011;3138;52.550;13.148;2023-02-18T00:29:10;27.60;;;5.03;;
6209;SDS011;3138;52.550;13.148;2023-02-18T00:31:38;25.67;;;4.70;;
6209;SDS011;3138;52.550;13.148;2023-02-18T00:34:05;40.57;;;4.97;;
6209;SDS011;3138;52.550;13.148;2023-02-18T00:36:32;35.63;;;4.57;;
6209;SDS011;3138;52.550;13.148;2023-02-18T00:39:01;39.67;;;4.10;;
6209;SDS011;3138;52.550;13.148;2023-02-18T00:41:30;17.43;;;3.47;;
6209;SDS011;3138;52.550;13.148;2023-02-18T00:43:58;25.50;;;3.63;;
6209;SDS011;3138;52.550;13.148;2023-02-18T00:46:26;15.53;;;3.93;;
6209;SDS011;3138;52.550;13.148;2023-02-18T00:48:54;24.03;;;3.63;;
6209;SDS011;3138;52.550;13.148;2023-02-18T00:51:21;17.40;;;3.40;;
6209;SDS011;3138;52.550;13.148;2023-02-18T00:53:49;28.37;;;4.10;;
6209;SDS011;3138;52.550;13.148;2023-02-18T00:56:16;35.70;;;5.63;;
6209;SDS011;3138;52.550;13.148;2023-02-18T00:58:43;13.03;;;2.33;;
6209;SDS011;3138;52.550;13.148;2023-02-18T01:01:10;23.10;;;3.07;;
6209;SDS011;3138;52.550;13.148;2023-02-18T01:03:39;28.43;;;4.57;;
6209;SDS011;3138;52.550;13.148;2023-02-18T01:06:07;30.33;;;3.37;;
6209;SDS011;3138;52.550;13.148;2023-02-18T01:08:34;28.17;;;3.97;;
6209;SDS011;3138;52.550;13.148;2023-02-18T01:11:02;33.97;;;4.07;;
6209;SDS011;3138;52.550;13.148;2023-02-18T01:13:30;25.13;;;4.40;;
6209;SDS011;3138;52.550;13.148;2023-02-18T01:15:57;31.30;;;3.00;;
6209;SDS011;3138;52.550;13.148;2023-02-18T01:18:24;29.10;;;3.67;;
6209;SDS011;3138;52.550;13.148;2023-02-18T01:20:52;31.60;;;4.00;;
6209;SDS011;3138;52.550;13.148;2023-02-18T01:23:19;24.60;;;4.47;;
6209;SDS011;3138;52.550;13.148;2023-02-18T01:25:47;19.30;;;3.80;;
6209;SDS011;3138;52.550;13.148;2023-02-18T01:28:14;17.37;;;3.40;;
6209;SDS011;3138;52.550;13.148;2023-02-18T01:30:41;29.13;;;3.40;;
6209;SDS011;3138;52.550;13.148;2023-02-18T01:33:08;36.93;;;4.00;;
6209;SDS011;3138;52.550;13.148;2023-02-18T01:35:36;25.87;;;3.97;;
6209;SDS011;3138;52.550;13.148;2023-02-18T01:38:05;17.50;;;2.60;;
6209;SDS011;3138;52.550;13.148;2023-02-18T01:40:32;15.27;;;2.63;;
6209;SDS011;3138;52.550;13.148;2023-02-18T01:42:58;33.47;;;3.90;;
6209;SDS011;3138;52.550;13.148;2023-02-18T01:48:25;27.30;;;3.07;;
6209;SDS011;3138;52.550;13.148;2023-02-18T01:50:56;28.60;;;4.37;;
6209;SDS011;3138;52.550;13.148;2023-02-18T01:53:29;28.20;;;3.23;;
6209;SDS011;3138;52.550;13.148;2023-02-18T01:56:01;24.70;;;5.33;;
6209;SDS011;3138;52.550;13.148;2023-02-18T01:58:31;22.00;;;4.00;;
6209;SDS011;3138;52.550;13.148;2023-02-18T02:00:59;24.20;;;3.23;;
6209;SDS011;3138;52.550;13.148;2023-02-18T02:03:25;26.30;;;4.40;;
6209;SDS011;3138;52.550;13.148;2023-02-18T02:05:52;25.23;;;3.87;;
6209;SDS011;3138;52.550;13.148;2023-02-18T02:08:19;36.90;;;3.83;;
6209;SDS011;3138;52.550;13.148;2023-02-18T02:10:52;40.13;;;5.70;;
6209;SDS011;3138;52.550;13.148;2023-02-18T02:13:38;27.57;;;3.30;;
6209;SDS011;3138;52.550;13.148;2023-02-18T02:16:17;15.67;;;3.77;;
6209;SDS011;3138;52.550;13.148;2023-02-18T02:18:52;26.10;;;3.90;;
6209;SDS011;3138;52.550;13.148;2023-02-18T02:21:31;32.03;;;3.67;;
6209;SDS011;3138;52.550;13.148;2023-02-18T02:24:35;16.20;;;2.90;;
6209;SDS011;3138;52.550;13.148;2023-02-18T02:27:25;20.10;;;3.10;;
6209;SDS011;3138;52.550;13.148;2023-02-18T02:36:13;25.80;;;3.37;;
6209;SDS011;3138;52.550;13.148;2023-02-18T02:38:43;18.13;;;3.60;;
6209;SDS011;3138;52.550;13.148;2023-02-18T02:41:20;19.93;;;4.63;;
6209;SDS011;3138;52.550;13.148;2023-02-18T02:44:00;26.83;;;5.30;;
6209;SDS011;3138;52.550;13.148;2023-02-18T02:46:35;19.20;;;3.83;;
6209;SDS011;3138;52.550;13.148;2023-02-18T02:49:08;18.50;;;3.30;;
6209;SDS011;3138;52.550;13.148;2023-02-18T02:51:45;28.00;;;3.10;;
6209;SDS011;3138;52.550;13.148;2023-02-18T02:54:20;28.37;;;3.20;;
6209;SDS011;3138;52.550;13.148;2023-02-18T02:56:48;22.33;;;4.43;;
6209;SDS011;3138;52.550;13.148;2023-02-18T02:59:16;24.03;;;3.70;;
6209;SDS011;3138;52.550;13.148;2023-02-18T03:01:49;21.77;;;3.50;;
6209;SDS011;3138;52.550;13.148;2023-02-18T03:04:31;23.40;;;3.90;;
6209;SDS011;3138;52.550;13.148;2023-02-18T03:07:16;27.73;;;3.90;;
6209;SDS011;3138;52.550;13.148;2023-02-18T03:09:59;22.23;;;2.87;;
6209;SDS011;3138;52.550;13.148;2023-02-18T03:12:44;15.73;;;2.43;;
6209;SDS011;3138;52.550;13.148;2023-02-18T03:15:20;19.03;;;3.00;;
6209;SDS011;3138;52.550;13.148;2023-02-18T03:17:51;19.60;;;2.53;;
6209;SDS011;3138;52.550;13.148;2023-02-18T03:20:24;12.10;;;2.40;;
6209;SDS011;3138;52.550;13.148;2023-02-18T03:22:58;20.70;;;3.20;;
6209;SDS011;3138;52.550;13.148;2023-02-18T03:25:26;12.93;;;2.90;;
6209;SDS011;3138;52.550;13.148;2023-02-18T03:27:54;17.93;;;2.27;;
6209;SDS011;3138;52.550;13.148;2023-02-18T03:30:26;30.07;;;4.13;;
6209;SDS011;3138;52.550;13.148;2023-02-18T03:32:57;19.43;;;2.80;;
6209;SDS011;3138;52.550;13.148;2023-02-18T03:35:28;15.67;;;3.20;;
6209;SDS011;3138;52.550;13.148;2023-02-18T03:37:56;11.80;;;3.20;;
6209;SDS011;3138;52.550;13.148;2023-02-18T03:40:29;21.63;;;2.07;;
6209;SDS011;3138;52.550;13.148;2023-02-18T03:42:57;15.07;;;3.27;;
6209;SDS011;3138;52.550;13.148;2023-02-18T03:45:24;16.57;;;2.17;;
6209;SDS011;3138;52.550;13.148;2023-02-18T03:47:51;27.80;;;3.43;;
6209;SDS011;3138;52.550;13.148;2023-02-18T03:50:18;20.23;;;2.87;;
6209;SDS011;3138;52.550;13.148;2023-02-18T03:52:45;17.93;;;4.70;;
6209;SDS011;3138;52.550;13.148;2023-02-18T03:55:13;22.50;;;2.80;;
6209;SDS011;3138;52.550;13.148;2023-02-18T03:57:40;18.20;;;3.17;;
6209;SDS011;3138;52.550;13.148;2023-02-18T04:00:07;18.27;;;3.10;;
6209;SDS011;3138;52.550;13.148;2023-02-18T04:02:35;20.93;;;3.23;;
6209;SDS011;3138;52.550;13.148;2023-02-18T04:05:02;13.73;;;3.20;;
6209;SDS011;3138;52.550;13.148;2023-02-18T04:07:29;18.37;;;2.07;;
6209;SDS011;3138;52.550;13.148;2023-02-18T04:09:56;9.07;;;2.50;;
6209;SDS011;3138;52.550;13.148;2023-02-18T04:12:24;21.30;;;2.40;;
6209;SDS011;3138;52.550;13.148;2023-02-18T04:14:51;11.50;;;2.23;;
6209;SDS011;3138;52.550;13.148;2023-02-18T04:17:18;29.27;;;3.43;;
6209;SDS011;3138;52.550;13.148;2023-02-18T04:19:45;13.73;;;2.00;;
6209;SDS011;3138;52.550;13.148;2023-02-18T04:22:12;15.70;;;3.80;;
6209;SDS011;3138;52.550;13.148;2023-02-18T04:24:39;15.57;;;2.90;;
6209;SDS011;3138;52.550;13.148;2023-02-18T04:27:05;14.53;;;2.43;;
6209;SDS011;3138;52.550;13.148;2023-02-18T04:29:34;18.77;;;3.50;;
6209;SDS011;3138;52.550;13.148;2023-02-18T04:32:01;18.40;;;3.70;;
6209;SDS011;3138;52.550;13.148;2023-02-18T04:34:27;25.00;;;3.37;;
6209;SDS011;3138;52.550;13.148;2023-02-18T04:36:54;21.17;;;2.67;;
6209;SDS011;3138;52.550;13.148;2023-02-18T04:39:21;27.97;;;3.20;;
6209;SDS011;3138;52.550;13.148;2023-02-18T04:41:48;10.67;;;2.87;;
6209;SDS011;3138;52.550;13.148;2023-02-18T04:44:15;10.90;;;2.40;;
6209;SDS011;3138;52.550;13.148;2023-02-18T04:46:43;20.70;;;3.27;;
6209;SDS011;3138;52.550;13.148;2023-02-18T04:49:10;16.77;;;2.70;;
6209;SDS011;3138;52.550;13.148;2023-02-18T04:51:36;21.43;;;3.10;;
6209;SDS011;3138;52.550;13.148;2023-02-18T04:54:03;13.60;;;2.60;;
6209;SDS011;3138;52.550;13.148;2023-02-18T04:56:30;11.63;;;2.30;;
6209;SDS011;3138;52.550;13.148;2023-02-18T04:58:57;18.20;;;3.10;;
6209;SDS011;3138;52.550;13.148;2023-02-18T05:01:24;11.73;;;2.50;;
6209;SDS011;3138;52.550;13.148;2023-02-18T05:03:52;13.23;;;2.70;;
6209;SDS011;3138;52.550;13.148;2023-02-18T05:06:19;15.23;;;2.20;;
6209;SDS011;3138;52.550;13.148;2023-02-18T05:08:46;12.33;;;2.40;;
6209;SDS011;3138;52.550;13.148;2023-02-18T05:11:12;24.70;;;3.37;;
6209;SDS011;3138;52.550;13.148;2023-02-18T05:13:39;20.23;;;2.63;;
6209;SDS011;3138;52.550;13.148;2023-02-18T05:16:06;9.17;;;2.33;;
6209;SDS011;3138;52.550;13.148;2023-02-18T05:18:33;9.00;;;2.27;;
6209;SDS011;3138;52.550;13.148;2023-02-18T05:21:02;18.50;;;2.77;;
6209;SDS011;3138;52.550;13.148;2023-02-18T05:23:29;22.70;;;2.10;;
6209;SDS011;3138;52.550;13.148;2023-02-18T05:25:56;11.03;;;2.00;;
6209;SDS011;3138;52.550;13.148;2023-02-18T05:28:23;13.73;;;2.10;;
6209;SDS011;3138;52.550;13.148;2023-02-18T05:30:50;12.43;;;2.40;;
6209;SDS011;3138;52.550;13.148;2023-02-18T05:33:17;15.10;;;2.37;;
6209;SDS011;3138;52.550;13.148;2023-02-18T05:35:44;11.87;;;2.43;;
6209;SDS011;3138;52.550;13.148;2023-02-18T05:38:12;11.40;;;2.40;;
6209;SDS011;3138;52.550;13.148;2023-02-18T05:40:39;10.43;;;2.27;;
6209;SDS011;3138;52.550;13.148;2023-02-18T05:43:05;16.73;;;2.57;;
6209;SDS011;3138;52.550;13.148;2023-02-18T05:45:32;18.23;;;2.37;;
6209;SDS011;3138;52.550;13.148;2023-02-18T05:47:59;8.07;;;2.00;;
6209;SDS011;3138;52.550;13.148;2023-02-18T05:50:26;22.40;;;3.13;;
6209;SDS011;3138;52.550;13.148;2023-02-18T05:52:53;7.80;;;2.20;;
6209;SDS011;3138;52.550;13.148;2023-02-18T05:55:21;21.00;;;3.00;;
6209;SDS011;3138;52.550;13.148;2023-02-18T05:57:49;9.27;;;2.20;;
6209;SDS011;3138;52.550;13.148;2023-02-18T06:00:16;19.17;;;3.87;;
6209;SDS011;3138;52.550;13.148;2023-02-18T06:02:43;8.00;;;1.60;;
6209;SDS011;3138;52.550;13.148;2023-02-18T06:05:10;7.53;;;2.00;;
6209;SDS011;3138;52.550;13.148;2023-02-18T06:07:37;26.33;;;2.67;;
6209;SDS011;3138;52.550;13.148;2023-02-18T06:10:05;18.20;;;3.60;;
6209;SDS011;3138;52.550;13.148;2023-02-18T06:12:34;18.27;;;2.13;;
6209;SDS011;3138;52.550;13.148;2023-02-18T06:15:01;10.83;;;2.20;;
6209;SDS011;3138;52.550;13.148;2023-02-18T06:17:27;16.00;;;2.27;;
6209;SDS011;3138;52.550;13.148;2023-02-18T06:19:54;14.20;;;2.37;;
6209;SDS011;3138;52.550;13.148;2023-02-18T06:22:21;12.37;;;2.20;;
6209;SDS011;3138;52.550;13.148;2023-02-18T06:24:48;27.83;;;2.40;;
6209;SDS011;3138;52.550;13.148;2023-02-18T06:27:15;19.07;;;2.07;;
6209;SDS011;3138;52.550;13.148;2023-02-18T06:29:43;12.77;;;3.60;;
6209;SDS011;3138;52.550;13.148;2023-02-18T06:32:10;11.43;;;2.70;;
6209;SDS011;3138;52.550;13.148;2023-02-18T06:34:37;5.90;;;2.53;;
6209;SDS011;3138;52.550;13.148;2023-02-18T06:37:03;20.47;;;3.13;;
6209;SDS011;3138;52.550;13.148;2023-02-18T06:39:30;15.10;;;2.27;;
6209;SDS011;3138;52.550;13.148;2023-02-18T06:41:57;10.97;;;2.63;;
6209;SDS011;3138;52.550;13.148;2023-02-18T06:44:24;8.70;;;1.93;;
6209;SDS011;3138;52.550;13.148;2023-02-18T06:46:52;10.90;;;1.60;;
6209;SDS011;3138;52.550;13.148;2023-02-18T06:49:19;22.77;;;3.00;;
6209;SDS011;3138;52.550;13.148;2023-02-18T06:51:46;18.67;;;2.40;;
6209;SDS011;3138;52.550;13.148;2023-02-18T06:54:13;9.57;;;1.60;;
6209;SDS011;3138;52.550;13.148;2023-02-18T06:56:39;5.67;;;2.07;;
6209;SDS011;3138;52.550;13.148;2023-02-18T06:59:06;7.00;;;1.40;;
6209;SDS011;3138;52.550;13.148;2023-02-18T07:01:33;15.87;;;2.40;;
6209;SDS011;3138;52.550;13.148;2023-02-18T07:04:02;3.67;;;1.33;;
6209;SDS011;3138;52.550;13.148;2023-02-18T07:06:28;7.70;;;1.50;;
6209;SDS011;3138;52.550;13.148;2023-02-18T07:08:55;7.67;;;1.53;;
6209;SDS011;3138;52.550;13.148;2023-02-18T07:11:22;7.63;;;1.13;;
6209;SDS011;3138;52.550;13.148;2023-02-18T07:13:49;7.03;;;2.17;;
6209;SDS011;3138;52.550;13.148;2023-02-18T07:16:16;4.97;;;1.63;;
6209;SDS011;3138;52.550;13.148;2023-02-18T07:18:43;17.27;;;3.23;;
6209;SDS011;3138;52.550;13.148;2023-02-18T07:21:11;4.33;;;1.70;;
6209;SDS011;3138;52.550;13.148;2023-02-18T07:23:38;4.47;;;1.90;;
6209;SDS011;3138;52.550;13.148;2023-02-18T07:26:05;9.13;;;1.50;;
6209;SDS011;3138;52.550;13.148;2023-02-18T07:28:33;15.50;;;1.70;;
6209;SDS011;3138;52.550;13.148;2023-02-18T07:31:00;6.60;;;2.37;;
6209;SDS011;3138;52.550;13.148;2023-02-18T07:33:27;11.60;;;1.40;;
6209;SDS011;3138;52.550;13.148;2023-02-18T07:35:54;10.63;;;2.20;;
6209;SDS011;3138;52.550;13.148;2023-02-18T07:38:23;25.33;;;3.23;;
6209;SDS011;3138;52.550;13.148;2023-02-18T07:40:51;11.03;;;2.30;;
6209;SDS011;3138;52.550;13.148;2023-02-18T07:43:18;11.30;;;2.00;;
6209;SDS011;3138;52.550;13.148;2023-02-18T07:45:45;9.83;;;1.77;;
6209;SDS011;3138;52.550;13.148;2023-02-18T07:48:12;6.60;;;2.03;;
6209;SDS011;3138;52.550;13.148;2023-02-18T07:50:39;11.07;;;2.20;;
6209;SDS011;3138;52.550;13.148;2023-02-18T07:53:06;10.10;;;2.00;;
6209;SDS011;3138;52.550;13.148;2023-02-18T07:55:35;4.50;;;1.60;;
6209;SDS011;3138;52.550;13.148;2023-02-18T07:58:14;9.97;;;1.63;;
6209;SDS011;3138;52.550;13.148;2023-02-18T08:00:41;25.03;;;2.03;;
6209;SDS011;3138;52.550;13.148;2023-02-18T08:03:08;9.73;;;1.00;;
6209;SDS011;3138;52.550;13.148;2023-02-18T08:05:35;9.27;;;1.60;;
6209;SDS011;3138;52.550;13.148;2023-02-18T08:08:02;8.13;;;1.40;;
6209;SDS011;3138;52.550;13.148;2023-02-18T08:10:29;11.93;;;1.50;;
6209;SDS011;3138;52.550;13.148;2023-02-18T08:12:57;8.20;;;1.73;;
6209;SDS011;3138;52.550;13.148;2023-02-18T08:15:24;16.97;;;2.10;;
6209;SDS011;3138;52.550;13.148;2023-02-18T08:17:51;14.73;;;1.93;;
6209;SDS011;3138;52.550;13.148;2023-02-18T08:20:18;10.70;;;2.30;;
6209;SDS011;3138;52.550;13.148;2023-02-18T08:22:45;15.43;;;2.47;;
6209;SDS011;3138;52.550;13.148;2023-02-18T08:25:12;17.97;;;2.17;;
6209;SDS011;3138;52.550;13.148;2023-02-18T08:27:38;16.50;;;2.67;;
6209;SDS011;3138;52.550;13.148;2023-02-18T08:30:07;14.20;;;3.87;;
6209;SDS011;3138;52.550;13.148;2023-02-18T08:32:35;30.77;;;3.30;;
6209;SDS011;3138;52.550;13.148;2023-02-18T08:35:02;10.70;;;2.17;;
6209;SDS011;3138;52.550;13.148;2023-02-18T08:37:29;8.63;;;2.87;;
6209;SDS011;3138;52.550;13.148;2023-02-18T08:39:56;11.40;;;2.40;;
6209;SDS011;3138;52.550;13.148;2023-02-18T08:42:23;22.83;;;3.33;;
6209;SDS011;3138;52.550;13.148;2023-02-18T08:44:50;5.23;;;2.27;;
6209;SDS011;3138;52.550;13.148;2023-02-18T08:47:18;14.93;;;3.07;;
6209;SDS011;3138;52.550;13.148;2023-02-18T08:49:45;11.23;;;2.60;;
6209;SDS011;3138;52.550;13.148;2023-02-18T08:52:11;18.70;;;1.97;;
6209;SDS011;3138;52.550;13.148;2023-02-18T08:54:38;14.43;;;1.90;;
6209;SDS011;3138;52.550;13.148;2023-02-18T08:57:05;11.00;;;1.90;;
6209;SDS011;3138;52.550;13.148;2023-02-18T08:59:32;17.00;;;2.60;;
6209;SDS011;3138;52.550;13.148;2023-02-18T09:01:59;15.73;;;2.80;;
6209;SDS011;3138;52.550;13.148;2023-02-18T09:04:27;14.50;;;1.60;;
6209;SDS011;3138;52.550;13.148;2023-02-18T09:06:55;7.70;;;2.50;;
6209;SDS011;3138;52.550;13.148;2023-02-18T09:09:22;4.20;;;1.67;;
6209;SDS011;3138;52.550;13.148;2023-02-18T09:11:48;13.37;;;4.10;;
6209;SDS011;3138;52.550;13.148;2023-02-18T09:14:15;19.70;;;6.00;;
6209;SDS011;3138;52.550;13.148;2023-02-18T09:16:42;14.00;;;4.50;;
6209;SDS011;3138;52.550;13.148;2023-02-18T09:19:09;23.37;;;3.03;;
6209;SDS011;3138;52.550;13.148;2023-02-18T09:21:37;12.33;;;2.27;;
6209;SDS011;3138;52.550;13.148;2023-02-18T09:24:04;7.70;;;1.70;;
6209;SDS011;3138;52.550;13.148;2023-02-18T09:26:31;9.17;;;1.90;;
6209;SDS011;3138;52.550;13.148;2023-02-18T09:28:58;12.30;;;2.43;;
6209;SDS011;3138;52.550;13.148;2023-02-18T09:31:25;16.73;;;2.10;;
6209;SDS011;3138;52.550;13.148;2023-02-18T09:33:54;12.53;;;2.60;;
6209;SDS011;3138;52.550;13.148;2023-02-18T09:36:22;11.70;;;2.63;;
6209;SDS011;3138;52.550;13.148;2023-02-18T09:38:51;18.87;;;2.40;;
6209;SDS011;3138;52.550;13.148;2023-02-18T09:41:22;21.40;;;2.47;;
6209;SDS011;3138;52.550;13.148;2023-02-18T09:43:54;18.03;;;3.30;;
6209;SDS011;3138;52.550;13.148;2023-02-18T09:46:25;9.93;;;2.90;;
6209;SDS011;3138;52.550;13.148;2023-02-18T09:48:55;17.67;;;3.90;;
6209;SDS011;3138;52.550;13.148;2023-02-18T09:51:23;13.83;;;3.00;;
6209;SDS011;3138;52.550;13.148;2023-02-18T09:53:51;20.90;;;4.83;;
6209;SDS011;3138;52.550;13.148;2023-02-18T09:56:19;31.60;;;9.07;;
6209;SDS011;3138;52.550;13.148;2023-02-18T09:58:51;13.07;;;4.93;;
6209;SDS011;3138;52.550;13.148;2023-02-18T10:01:20;12.60;;;3.83;;
6209;SDS011;3138;52.550;13.148;2023-02-18T10:03:50;10.50;;;2.50;;
6209;SDS011;3138;52.550;13.148;2023-02-18T10:06:19;18.43;;;3.27;;
6209;SDS011;3138;52.550;13.148;2023-02-18T10:08:49;20.40;;;3.37;;
6209;SDS011;3138;52.550;13.148;2023-02-18T10:11:21;9.77;;;3.00;;
6209;SDS011;3138;52.550;13.148;2023-02-18T10:13:53;26.23;;;3.63;;
6209;SDS011;3138;52.550;13.148;2023-02-18T10:16:21;18.13;;;3.17;;
6209;SDS011;3138;52.550;13.148;2023-02-18T10:18:52;11.53;;;2.83;;
6209;SDS011;3138;52.550;13.148;2023-02-18T10:21:21;10.63;;;2.30;;
6209;SDS011;3138;52.550;13.148;2023-02-18T10:23:54;16.90;;;2.80;;
6209;SDS011;3138;52.550;13.148;2023-02-18T10:26:25;18.13;;;2.93;;
6209;SDS011;3138;52.550;13.148;2023-02-18T10:28:54;23.23;;;2.37;;
6209;SDS011;3138;52.550;13.148;2023-02-18T10:31:24;21.07;;;3.43;;
6209;SDS011;3138;52.550;13.148;2023-02-18T10:33:58;14.60;;;2.40;;
6209;SDS011;3138;52.550;13.148;2023-02-18T10:36:31;9.00;;;2.30;;
6209;SDS011;3138;52.550;13.148;2023-02-18T10:39:20;9.17;;;2.83;;
6209;SDS011;3138;52.550;13.148;2023-02-18T10:42:01;12.43;;;2.30;;
6209;SDS011;3138;52.550;13.148;2023-02-18T10:44:42;9.27;;;1.90;;
6209;SDS011;3138;52.550;13.148;2023-02-18T10:47:19;13.83;;;3.10;;
6209;SDS011;3138;52.550;13.148;2023-02-18T10:49:57;22.27;;;3.03;;
6209;SDS011;3138;52.550;13.148;2023-02-18T10:52:26;10.00;;;2.70;;
6209;SDS011;3138;52.550;13.148;2023-02-18T10:54:58;17.40;;;4.47;;
6209;SDS011;3138;52.550;13.148;2023-02-18T10:57:28;15.83;;;2.93;;
6209;SDS011;3138;52.550;13.148;2023-02-18T10:59:57;6.47;;;2.57;;
6209;SDS011;3138;52.550;13.148;2023-02-18T11:02:27;9.83;;;2.83;;
6209;SDS011;3138;52.550;13.148;2023-02-18T11:04:56;13.40;;;2.30;;
6209;SDS011;3138;52.550;13.148;2023-02-18T11:07:28;18.57;;;3.20;;
6209;SDS011;3138;52.550;13.148;2023-02-18T11:09:58;19.53;;;3.57;;
6209;SDS011;3138;52.550;13.148;2023-02-18T11:12:28;9.20;;;2.10;;
6209;SDS011;3138;52.550;13.148;2023-02-18T11:15:04;5.97;;;2.23;;
6209;SDS011;3138;52.550;13.148;2023-02-18T11:17:41;9.30;;;2.60;;
6209;SDS011;3138;52.550;13.148;2023-02-18T11:20:19;9.00;;;2.37;;
6209;SDS011;3138;52.550;13.148;2023-02-18T11:22:51;7.60;;;1.80;;
6209;SDS011;3138;52.550;13.148;2023-02-18T11:25:25;4.77;;;2.50;;
6209;SDS011;3138;52.550;13.148;2023-02-18T11:27:57;8.77;;;2.93;;
6209;SDS011;3138;52.550;13.148;2023-02-18T11:30:29;7.00;;;2.47;;
6209;SDS011;3138;52.550;13.148;2023-02-18T11:32:58;10.90;;;2.67;;
6209;SDS011;3138;52.550;13.148;2023-02-18T11:35:34;1.57;;;1.30;;
6209;SDS011;3138;52.550;13.148;2023-02-18T11:38:02;5.40;;;1.93;;
6209;SDS011;3138;52.550;13.148;2023-02-18T11:40:53;1.90;;;1.43;;
6209;SDS011;3138;52.550;13.148;2023-02-18T11:43:22;3.40;;;2.00;;
6209;SDS011;3138;52.550;13.148;2023-02-18T11:46:06;4.73;;;1.50;;
6209;SDS011;3138;52.550;13.148;2023-02-18T11:48:34;2.63;;;1.50;;
6209;SDS011;3138;52.550;13.148;2023-02-18T11:51:01;4.40;;;1.73;;
6209;SDS011;3138;52.550;13.148;2023-02-18T11:53:30;2.50;;;2.10;;
6209;SDS011;3138;52.550;13.148;2023-02-18T11:56:02;3.17;;;2.10;;
6209;SDS011;3138;52.550;13.148;2023-02-18T11:58:32;3.60;;;1.97;;
6209;SDS011;3138;52.550;13.148;2023-02-18T12:01:04;3.17;;;2.47;;
6209;SDS011;3138;52.550;13.148;2023-02-18T12:03:35;6.10;;;2.80;;
6209;SDS011;3138;52.550;13.148;2023-02-18T12:06:10;3.80;;;3.17;;
6209;SDS011;3138;52.550;13.148;2023-02-18T12:08:44;4.73;;;3.17;;
6209;SDS011;3138;52.550;13.148;2023-02-18T12:11:19;2.97;;;2.73;;
6209;SDS011;3138;52.550;13.148;2023-02-18T12:13:52;2.97;;;2.80;;
6209;SDS011;3138;52.550;13.148;2023-02-18T12:16:23;4.07;;;3.67;;
6209;SDS011;3138;52.550;13.148;2023-02-18T12:19:02;4.87;;;3.40;;
6209;SDS011;3138;52.550;13.148;2023-02-18T12:21:39;7.57;;;4.13;;
6209;SDS011;3138;52.550;13.148;2023-02-18T12:24:17;6.30;;;4.60;;
6209;SDS011;3138;52.550;13.148;2023-02-18T12:27:00;5.40;;;4.50;;
6209;SDS011;3138;52.550;13.148;2023-02-18T12:29:41;10.43;;;5.27;;
6209;SDS011;3138;52.550;13.148;2023-02-18T12:32:30;5.50;;;4.87;;
6209;SDS011;3138;52.550;13.148;2023-02-18T12:35:10;13.93;;;5.90;;
6209;SDS011;3138;52.550;13.148;2023-02-18T12:38:08;10.13;;;5.20;;
6209;SDS011;3138;52.550;13.148;2023-02-18T12:40:51;7.50;;;6.33;;
6209;SDS011;3138;52.550;13.148;2023-02-18T12:43:30;11.07;;;6.47;;
6209;SDS011;3138;52.550;13.148;2023-02-18T12:46:14;8.17;;;7.03;;
6209;SDS011;3138;52.550;13.148;2023-02-18T12:48:51;8.87;;;6.53;;
6209;SDS011;3138;52.550;13.148;2023-02-18T12:51:51;9.57;;;6.70;;
6209;SDS011;3138;52.550;13.148;2023-02-18T12:54:47;10.50;;;7.50;;
6209;SDS011;3138;52.550;13.148;2023-02-18T12:57:35;6.43;;;5.73;;
6209;SDS011;3138;52.550;13.148;2023-02-18T13:00:21;6.03;;;5.43;;
6209;SDS011;3138;52.550;13.148;2023-02-18T13:03:16;5.40;;;4.90;;
6209;SDS011;3138;52.550;13.148;2023-02-18T13:06:05;6.23;;;5.13;;
6209;SDS011;3138;52.550;13.148;2023-02-18T13:08:44;6.63;;;5.30;;
6209;SDS011;3138;52.550;13.148;2023-02-18T13:11:26;4.80;;;4.23;;
6209;SDS011;3138;52.550;13.148;2023-02-18T13:14:02;5.93;;;4.53;;
6209;SDS011;3138;52.550;13.148;2023-02-18T13:16:36;3.87;;;3.50;;
6209;SDS011;3138;52.550;13.148;2023-02-18T13:19:06;7.67;;;4.07;;
6209;SDS011;3138;52.550;13.148;2023-02-18T13:21:41;3.60;;;3.40;;
6209;SDS011;3138;52.550;13.148;2023-02-18T13:24:11;4.63;;;3.83;;
6209;SDS011;3138;52.550;13.148;2023-02-18T13:26:40;2.97;;;2.77;;
6209;SDS011;3138;52.550;13.148;2023-02-18T13:29:15;3.80;;;2.97;;
6209;SDS011;3138;52.550;13.148;2023-02-18T13:31:52;2.83;;;2.63;;
6209;SDS011;3138;52.550;13.148;2023-02-18T13:34:28;2.47;;;2.30;;
6209;SDS011;3138;52.550;13.148;2023-02-18T13:37:02;3.03;;;2.17;;
6209;SDS011;3138;52.550;13.148;2023-02-18T13:39:34;7.23;;;1.80;;
6209;SDS011;3138;52.550;13.148;2023-02-18T13:45:02;2.13;;;1.70;;
6209;SDS011;3138;52.550;13.148;2023-02-18T13:47:48;1.30;;;1.30;;
6209;SDS011;3138;52.550;13.148;2023-02-18T13:50:22;2.13;;;1.57;;
6209;SDS011;3138;52.550;13.148;2023-02-18T13:52:56;1.43;;;1.33;;
6209;SDS011;3138;52.550;13.148;2023-02-18T13:55:38;1.10;;;1.10;;
6209;SDS011;3138;52.550;13.148;2023-02-18T13:58:10;1.73;;;1.63;;
6209;SDS011;3138;52.550;13.148;2023-02-18T14:00:48;1.73;;;1.73;;
6209;SDS011;3138;52.550;13.148;2023-02-18T14:03:30;3.03;;;2.83;;
6209;SDS011;3138;52.550;13.148;2023-02-18T14:06:00;1.53;;;1.53;;
6209;SDS011;3138;52.550;13.148;2023-02-18T14:08:30;1.90;;;1.80;;
6209;SDS011;3138;52.550;13.148;2023-02-18T14:13:51;1.90;;;1.80;;
6209;SDS011;3138;52.550;13.148;2023-02-18T14:16:20;1.83;;;1.73;;
6209;SDS011;3138;52.550;13.148;2023-02-18T14:18:56;1.93;;;1.80;;
6209;SDS011;3138;52.550;13.148;2023-02-18T14:21:39;2.17;;;2.07;;
6209;SDS011;3138;52.550;13.148;2023-02-18T14:24:08;1.67;;;1.57;;
6209;SDS011;3138;52.550;13.148;2023-02-18T14:26:39;2.00;;;1.90;;
6209;SDS011;3138;52.550;13.148;2023-02-18T14:29:11;1.60;;;1.50;;
6209;SDS011;3138;52.550;13.148;2023-02-18T14:31:46;13.13;;;2.03;;
6209;SDS011;3138;52.550;13.148;2023-02-18T14:34:27;3.63;;;1.90;;
6209;SDS011;3138;52.550;13.148;2023-02-18T14:37:15;2.47;;;1.77;;
6209;SDS011;3138;52.550;13.148;2023-02-18T14:40:10;2.00;;;1.90;;
6209;SDS011;3138;52.550;13.148;2023-02-18T14:42:49;1.27;;;1.27;;
6209;SDS011;3138;52.550;13.148;2023-02-18T14:45:30;1.77;;;1.67;;
6209;SDS011;3138;52.550;13.148;2023-02-18T14:48:10;1.70;;;1.60;;
6209;SDS011;3138;52.550;13.148;2023-02-18T14:50:51;1.37;;;1.37;;
6209;SDS011;3138;52.550;13.148;2023-02-18T14:53:21;1.77;;;1.67;;
6209;SDS011;3138;52.550;13.148;2023-02-18T14:55:50;1.33;;;1.33;;
6209;SDS011;3138;52.550;13.148;2023-02-18T14:58:24;3.40;;;1.03;;
6209;SDS011;3138;52.550;13.148;2023-02-18T15:00:54;1.30;;;1.30;;
6209;SDS011;3138;52.550;13.148;2023-02-18T15:03:22;1.53;;;1.53;;
6209;SDS011;3138;52.550;13.148;2023-02-18T15:05:52;3.27;;;1.50;;
6209;SDS011;3138;52.550;13.148;2023-02-18T15:08:19;1.43;;;1.43;;
6209;SDS011;3138;52.550;13.148;2023-02-18T15:10:48;1.27;;;1.27;;
6209;SDS011;3138;52.550;13.148;2023-02-18T15:13:19;1.27;;;1.27;;
6209;SDS011;3138;52.550;13.148;2023-02-18T15:15:49;1.03;;;1.03;;
6209;SDS011;3138;52.550;13.148;2023-02-18T15:18:24;1.00;;;1.00;;
6209;SDS011;3138;52.550;13.148;2023-02-18T15:20:55;0.90;;;0.90;;
6209;SDS011;3138;52.550;13.148;2023-02-18T15:23:25;0.80;;;0.80;;
6209;SDS011;3138;52.550;13.148;2023-02-18T15:25:52;1.27;;;1.13;;
6209;SDS011;3138;52.550;13.148;2023-02-18T15:28:20;0.80;;;0.80;;
6209;SDS011;3138;52.550;13.148;2023-02-18T15:30:49;0.80;;;0.80;;